Bay City, TX (77414)

7:02 AM CST on February 11, 2016 (GMT -0600)
Oak Creek 2 | | Change Station
CLOSE
Current Station
Personal Weather Station
Location: Van Vleck, TX
Elevation: 62 ft
Nearby Weather Stations

Elev 62 ft 29.04 °N, 95.89 °W | Updated 17 seconds ago

Clear
Clear
50.7 °F
Feels Like 50.7 °F
N
0.0
Wind Variable Wind from SSW
Gusts 0.0 mph

Today
High -- | Low -- °F
--% Chance of Precip.
Yesterday
High -- | Low -- °F
Precip. -- in
Pressure 30.20 in
Visibility 0.5 miles
Clouds
Dew Point 50 °F
Humidity 99%
Rainfall 0.00 in
Snow Depth Not available.
7:06 AM 6:10 PM
Waxing Crescent, 12% visible
METAR KBYY 111255Z AUTO 00000KT 1/2SM FG VV005 11/11 A3020 RMK AO2 T01090109
Pressure 30.20 in
Visibility 0.5 miles
Clouds
Dew Point 50 °F
Humidity 99%
Rainfall 0.00 in
Snow Depth Not available.
7:06 AM 6:10 PM
Waxing Crescent, 12% visible
METAR KBYY 111255Z AUTO 00000KT 1/2SM FG VV005 11/11 A3020 RMK AO2 T01090109

10-Day Weather Forecast

Almanac

Astronomy

Feb. 11, 2016 Rise Set
Actual Time
Civil Twilight
Nautical Twilight
Astronomical Twilight
Moon
Length of Visible Light
Length of Day
Tomorrow will be .
, % of the Moon is Illuminated

Today's Extremes

State Highs State Lows

Community

WunderPhotos

Upload Photos

1,892,038 photos uploaded!

WunderBlog® & News

Nearby

Air Quality

  Air Quality AQ Index Pollutant
Not available.

Snow Depth

Station Depth Elevation

Earthquake Activity

City Distance Mag. Time & Date
Minimum magnitude displayed is 2.5.

Coastal Water Temperatures

Place Temperature

Stations

Nearby Weather Stations

Station Location Temp. Windchill Dew Point Humidity Wind Precip. Elev Updated Type
                   

Watches & Warnings

There are currently no watches in effect.